createdAt,value
2023-05-21T00:00:40.441Z,866.00
2023-05-21T00:01:40.469Z,868.00
2023-05-21T00:02:40.569Z,869.00
2023-05-21T00:03:40.652Z,903.00
2023-05-21T00:04:40.526Z,923.00
2023-05-21T00:05:40.581Z,916.00
2023-05-21T00:06:40.563Z,912.00
2023-05-21T00:07:40.562Z,904.00
2023-05-21T00:08:40.577Z,897.00
2023-05-21T00:09:40.584Z,913.00
2023-05-21T00:10:40.628Z,920.00
2023-05-21T00:11:40.662Z,900.00
2023-05-21T00:12:40.667Z,884.00
2023-05-21T00:13:40.715Z,879.00
2023-05-21T00:14:40.710Z,899.00
2023-05-21T00:15:40.707Z,883.00
2023-05-21T00:16:40.753Z,894.00
2023-05-21T00:17:40.752Z,892.00
2023-05-21T00:18:40.805Z,910.00
2023-05-21T00:19:40.764Z,893.00
2023-05-21T00:20:40.769Z,908.00
2023-05-21T00:21:40.788Z,898.00
2023-05-21T00:22:40.792Z,907.00
2023-05-21T00:23:40.821Z,891.00
2023-05-21T00:24:40.815Z,893.00
2023-05-21T00:25:40.815Z,913.00
2023-05-21T00:26:40.836Z,931.00
2023-05-21T00:27:40.855Z,911.00
2023-05-21T00:28:40.848Z,918.00
2023-05-21T00:29:42.933Z,891.00
2023-05-21T00:30:40.891Z,889.00
2023-05-21T00:31:40.950Z,903.00
2023-05-21T00:32:40.917Z,908.00
2023-05-21T00:33:40.850Z,911.00
2023-05-21T00:34:40.852Z,908.00
2023-05-21T00:35:40.827Z,945.00
2023-05-21T00:36:40.848Z,954.00
2023-05-21T00:37:40.830Z,965.00
2023-05-21T00:38:40.807Z,969.00
2023-05-21T00:39:40.799Z,977.00
2023-05-21T00:40:40.818Z,962.00
2023-05-21T00:41:40.787Z,980.00
2023-05-21T00:42:40.783Z,946.00
2023-05-21T00:43:40.804Z,943.00
2023-05-21T00:44:40.782Z,949.00
2023-05-21T00:45:40.819Z,942.00
2023-05-21T00:46:40.761Z,951.00
2023-05-21T00:47:40.761Z,966.00
2023-05-21T00:48:40.750Z,1006.00
2023-05-21T00:49:40.736Z,1029.00
2023-05-21T00:50:40.738Z,1025.00
2023-05-21T00:51:40.723Z,1015.00
2023-05-21T00:52:40.727Z,994.00
2023-05-21T00:53:40.727Z,1002.00
2023-05-21T00:54:40.727Z,1030.00
2023-05-21T00:55:40.724Z,1030.00
2023-05-21T00:56:40.712Z,1058.00
2023-05-21T00:57:40.700Z,1031.00
2023-05-21T00:58:40.694Z,1036.00
2023-05-21T00:59:40.682Z,1027.00
2023-05-21T01:00:40.777Z,1023.00
2023-05-21T01:01:40.804Z,1006.00
2023-05-21T01:02:40.908Z,1003.00
2023-05-21T01:03:40.687Z,1017.00
2023-05-21T01:04:40.646Z,1038.00
2023-05-21T01:05:40.649Z,1045.00
2023-05-21T01:06:40.631Z,1045.00
2023-05-21T01:07:40.641Z,1064.00
2023-05-21T01:08:40.634Z,1073.00
2023-05-21T01:09:40.605Z,1091.00
2023-05-21T01:10:40.616Z,1100.00
2023-05-21T01:11:40.619Z,1133.00
2023-05-21T01:12:40.586Z,1133.00
2023-05-21T01:13:40.592Z,1120.00
2023-05-21T01:14:40.587Z,1112.00
2023-05-21T01:15:40.576Z,1135.00
2023-05-21T01:16:40.604Z,1133.00
2023-05-21T01:17:40.587Z,1137.00
2023-05-21T01:18:40.601Z,1138.00
2023-05-21T01:19:40.599Z,1152.00
2023-05-21T01:20:40.545Z,1117.00
2023-05-21T01:21:40.529Z,1127.00
2023-05-21T01:22:40.535Z,1139.00
2023-05-21T01:23:40.514Z,1135.00
2023-05-21T01:24:40.528Z,1135.00
2023-05-21T01:25:40.523Z,1135.00
2023-05-21T01:26:40.506Z,1142.00
2023-05-21T01:27:40.509Z,1136.00
2023-05-21T01:28:40.508Z,1119.00
2023-05-21T01:29:40.499Z,1127.00
2023-05-21T01:30:40.509Z,1146.00
2023-05-21T01:31:40.496Z,1147.00
2023-05-21T01:32:40.556Z,1152.00
2023-05-21T01:33:40.574Z,1154.00
2023-05-21T01:34:40.473Z,1117.00
2023-05-21T01:35:40.480Z,1106.00
2023-05-21T01:36:40.456Z,1084.00
2023-05-21T01:37:40.461Z,1110.00
2023-05-21T01:38:40.435Z,1134.00
2023-05-21T01:39:40.440Z,1136.00
2023-05-21T01:40:40.444Z,1147.00
2023-05-21T01:41:40.427Z,1136.00
2023-05-21T01:42:40.427Z,1143.00
2023-05-21T01:43:40.419Z,1160.00
2023-05-21T01:44:40.391Z,1152.00
2023-05-21T01:45:40.412Z,1155.00
2023-05-21T01:46:40.396Z,1142.00
2023-05-21T01:47:40.389Z,1153.00
2023-05-21T01:48:40.378Z,1156.00
2023-05-21T01:49:40.372Z,1145.00
2023-05-21T01:50:40.375Z,1178.00
2023-05-21T01:51:40.354Z,1159.00
2023-05-21T01:52:40.366Z,1169.00
2023-05-21T01:53:40.334Z,1166.00
2023-05-21T01:54:40.328Z,1191.00
2023-05-21T01:55:40.356Z,1187.00
2023-05-21T01:56:40.319Z,1195.00
2023-05-21T01:57:40.328Z,1200.00
2023-05-21T01:58:40.323Z,1192.00
2023-05-21T01:59:40.320Z,1192.00
2023-05-21T02:00:40.310Z,1197.00
2023-05-21T02:01:40.343Z,1178.00
2023-05-21T02:02:40.366Z,1185.00
2023-05-21T02:03:40.369Z,1188.00
2023-05-21T02:04:40.286Z,1201.00
2023-05-21T02:05:40.277Z,1184.00
2023-05-21T02:06:40.262Z,1189.00
2023-05-21T02:07:40.263Z,1178.00
2023-05-21T02:08:40.254Z,1182.00
2023-05-21T02:09:40.261Z,1155.00
2023-05-21T02:10:40.243Z,1170.00
2023-05-21T02:11:40.261Z,1186.00
2023-05-21T02:12:40.233Z,1206.00
2023-05-21T02:13:40.225Z,1225.00
2023-05-21T02:14:40.229Z,1219.00
2023-05-21T02:15:40.206Z,1233.00
2023-05-21T02:16:40.303Z,1221.00
2023-05-21T02:17:40.232Z,1221.00
2023-05-21T02:18:40.192Z,1227.00
2023-05-21T02:19:40.199Z,1217.00
2023-05-21T02:20:40.194Z,1243.00
2023-05-21T02:21:40.185Z,1249.00
2023-05-21T02:22:40.169Z,1266.00
2023-05-21T02:23:40.197Z,1257.00
2023-05-21T02:24:40.166Z,1269.00
2023-05-21T02:25:40.171Z,1256.00
2023-05-21T02:26:40.140Z,1232.00
2023-05-21T02:27:40.132Z,1229.00
2023-05-21T02:28:40.123Z,1199.00
2023-05-21T02:29:40.126Z,1211.00
2023-05-21T02:30:40.125Z,1210.00
2023-05-21T02:31:40.097Z,1201.00
2023-05-21T02:32:40.104Z,1225.00
2023-05-21T02:33:40.142Z,1199.00
2023-05-21T02:34:40.075Z,1205.00
2023-05-21T02:35:40.079Z,1205.00
2023-05-21T02:36:40.068Z,1221.00
2023-05-21T02:37:40.080Z,1218.00
2023-05-21T02:38:40.072Z,1228.00
2023-05-21T02:39:40.067Z,1233.00
2023-05-21T02:40:40.058Z,1209.00
2023-05-21T02:41:40.055Z,1225.00
2023-05-21T02:42:40.346Z,1204.00
2023-05-21T02:43:40.047Z,1203.00
2023-05-21T02:44:40.032Z,1224.00
2023-05-21T02:45:40.121Z,1220.00
2023-05-21T02:46:40.007Z,1219.00
2023-05-21T02:47:40.047Z,1216.00
2023-05-21T02:48:40.008Z,1224.00
2023-05-21T02:49:39.994Z,1247.00
2023-05-21T02:50:40.026Z,1216.00
2023-05-21T02:51:39.982Z,1225.00
2023-05-21T02:52:39.959Z,1217.00
2023-05-21T02:53:39.968Z,1207.00
2023-05-21T02:54:39.956Z,1215.00
2023-05-21T02:55:39.967Z,1222.00
2023-05-21T02:56:39.931Z,1212.00
2023-05-21T02:57:39.938Z,1234.00
2023-05-21T02:58:39.916Z,1250.00
2023-05-21T02:59:39.932Z,1245.00
2023-05-21T03:00:39.926Z,1256.00
2023-05-21T03:01:39.941Z,1250.00
2023-05-21T03:02:39.933Z,1239.00
2023-05-21T03:03:39.947Z,1243.00
2023-05-21T03:04:39.890Z,1239.00
2023-05-21T03:05:39.898Z,1230.00
2023-05-21T03:06:39.872Z,1246.00
2023-05-21T03:07:39.860Z,1237.00
2023-05-21T03:08:39.871Z,1229.00
2023-05-21T03:09:39.858Z,1207.00
2023-05-21T03:10:39.864Z,1196.00
2023-05-21T03:11:39.833Z,1217.00
2023-05-21T03:12:39.839Z,1205.00
2023-05-21T03:13:39.879Z,1223.00
2023-05-21T03:14:39.836Z,1222.00
2023-05-21T03:15:39.896Z,1230.00
2023-05-21T03:16:39.831Z,1217.00
2023-05-21T03:17:39.917Z,1225.00
2023-05-21T03:18:39.805Z,1220.00
2023-05-21T03:19:39.781Z,1232.00
2023-05-21T03:20:39.784Z,1223.00
2023-05-21T03:21:39.779Z,1222.00
2023-05-21T03:22:39.752Z,1233.00
2023-05-21T03:23:39.762Z,1236.00
2023-05-21T03:24:39.769Z,1208.00
2023-05-21T03:25:39.736Z,1214.00
2023-05-21T03:26:39.725Z,1202.00
2023-05-21T03:27:39.742Z,1208.00
2023-05-21T03:28:39.727Z,1222.00
2023-05-21T03:29:39.720Z,1211.00
2023-05-21T03:30:39.716Z,1210.00
2023-05-21T03:31:39.700Z,1212.00
2023-05-21T03:32:39.737Z,1238.00
2023-05-21T03:33:39.695Z,1213.00
2023-05-21T03:34:39.740Z,1217.00
2023-05-21T03:35:39.672Z,1226.00
2023-05-21T03:36:39.658Z,1230.00
2023-05-21T03:37:39.678Z,1218.00
2023-05-21T03:38:39.644Z,1225.00
2023-05-21T03:39:39.659Z,1223.00
2023-05-21T03:40:39.653Z,1242.00
2023-05-21T03:41:39.639Z,1228.00
2023-05-21T03:42:39.618Z,1240.00
2023-05-21T03:43:39.620Z,1237.00
2023-05-21T03:44:39.623Z,1234.00
2023-05-21T03:45:41.561Z,1257.00
2023-05-21T03:46:39.661Z,1257.00
2023-05-21T03:47:39.592Z,1257.00
2023-05-21T03:48:39.601Z,1259.00
2023-05-21T03:49:39.577Z,1241.00
2023-05-21T03:50:39.582Z,1227.00
2023-05-21T03:51:39.700Z,1253.00
2023-05-21T03:52:39.554Z,1260.00
2023-05-21T03:53:39.546Z,1267.00
2023-05-21T03:54:39.546Z,1253.00
2023-05-21T03:55:39.538Z,1240.00
2023-05-21T03:56:39.528Z,1257.00
2023-05-21T03:57:39.547Z,1255.00
2023-05-21T03:58:39.527Z,1266.00
2023-05-21T03:59:39.510Z,1265.00
2023-05-21T04:00:39.507Z,1274.00
2023-05-21T04:01:39.508Z,1255.00
2023-05-21T04:02:39.578Z,1255.00
2023-05-21T04:03:40.873Z,1251.00
2023-05-21T04:04:39.508Z,1275.00
2023-05-21T04:05:39.485Z,1247.00
2023-05-21T04:06:39.479Z,1240.00
2023-05-21T04:07:39.468Z,1259.00
2023-05-21T04:08:39.443Z,1248.00
2023-05-21T04:09:39.453Z,1273.00
2023-05-21T04:10:39.436Z,1257.00
2023-05-21T04:11:39.429Z,1254.00
2023-05-21T04:12:39.441Z,1252.00
2023-05-21T04:13:39.421Z,1246.00
2023-05-21T04:14:39.431Z,1266.00
2023-05-21T04:15:39.601Z,1249.00
2023-05-21T04:16:39.458Z,1244.00
2023-05-21T04:17:39.426Z,1228.00
2023-05-21T04:18:39.425Z,1238.00
2023-05-21T04:19:39.499Z,1228.00
2023-05-21T04:20:39.417Z,1245.00
2023-05-21T04:21:39.394Z,1245.00
2023-05-21T04:22:39.376Z,1246.00
2023-05-21T04:23:39.381Z,1257.00
2023-05-21T04:24:39.417Z,1240.00
2023-05-21T04:25:39.346Z,1243.00
2023-05-21T04:26:39.356Z,1229.00
2023-05-21T04:27:39.328Z,1208.00
2023-05-21T04:28:39.333Z,1199.00
2023-05-21T04:29:39.312Z,1235.00
2023-05-21T04:30:39.324Z,1232.00
2023-05-21T04:31:39.342Z,1220.00
2023-05-21T04:32:39.372Z,1235.00
2023-05-21T04:33:39.284Z,1225.00
2023-05-21T04:34:39.295Z,1241.00
2023-05-21T04:35:39.274Z,1232.00
2023-05-21T04:36:39.260Z,1259.00
2023-05-21T04:37:39.257Z,1270.00
2023-05-21T04:38:39.258Z,1268.00
2023-05-21T04:39:39.256Z,1269.00
2023-05-21T04:40:39.277Z,1261.00
2023-05-21T04:41:39.218Z,1279.00
2023-05-21T04:42:39.217Z,1262.00
2023-05-21T04:43:39.222Z,1269.00
2023-05-21T04:44:39.198Z,1259.00
2023-05-21T04:45:39.212Z,1253.00
2023-05-21T04:46:41.689Z,1254.00
2023-05-21T04:47:39.212Z,1273.00
2023-05-21T04:48:39.173Z,1267.00
2023-05-21T04:49:39.170Z,1287.00
2023-05-21T04:50:39.152Z,1277.00
2023-05-21T04:51:39.174Z,1255.00
2023-05-21T04:52:39.168Z,1252.00
2023-05-21T04:53:39.135Z,1239.00
2023-05-21T04:54:39.125Z,1245.00
2023-05-21T04:55:39.135Z,1259.00
2023-05-21T04:56:39.123Z,1273.00
2023-05-21T04:57:39.109Z,1268.00
2023-05-21T04:58:39.113Z,1277.00
2023-05-21T04:59:39.094Z,1280.00
2023-05-21T05:00:39.111Z,1264.00
2023-05-21T05:01:39.082Z,1259.00
2023-05-21T05:02:39.104Z,1245.00
2023-05-21T05:03:39.114Z,1236.00
2023-05-21T05:04:39.060Z,1211.00
2023-05-21T05:05:39.220Z,1204.00
2023-05-21T05:06:39.044Z,1223.00
2023-05-21T05:07:39.031Z,1165.00
2023-05-21T05:08:39.039Z,1162.00
2023-05-21T05:09:39.037Z,1178.00
2023-05-21T05:10:39.016Z,1168.00
2023-05-21T05:11:39.022Z,1166.00
2023-05-21T05:12:38.998Z,1142.00
2023-05-21T05:13:38.995Z,1142.00
2023-05-21T05:14:38.994Z,1114.00
2023-05-21T05:15:39.003Z,1122.00
2023-05-21T05:16:39.090Z,1093.00
2023-05-21T05:17:39.021Z,1063.00
2023-05-21T05:18:38.974Z,1053.00
2023-05-21T05:19:38.959Z,1034.00
2023-05-21T05:20:38.964Z,1029.00
2023-05-21T05:21:38.955Z,991.00
2023-05-21T05:22:38.950Z,1023.00
2023-05-21T05:23:38.928Z,1010.00
2023-05-21T05:24:38.931Z,988.00
2023-05-21T05:25:39.016Z,962.00
2023-05-21T05:26:38.925Z,949.00
2023-05-21T05:27:38.904Z,909.00
2023-05-21T05:28:38.892Z,880.00
2023-05-21T05:29:38.904Z,841.00
2023-05-21T05:30:38.910Z,821.00
2023-05-21T05:31:38.877Z,800.00
2023-05-21T05:32:38.893Z,770.00
2023-05-21T05:33:38.861Z,769.00
2023-05-21T05:34:38.871Z,771.00
2023-05-21T05:35:38.896Z,761.00
2023-05-21T05:36:38.860Z,749.00
2023-05-21T05:37:38.837Z,752.00
2023-05-21T05:38:38.828Z,749.00
2023-05-21T05:39:38.820Z,740.00
2023-05-21T05:40:38.827Z,746.00
2023-05-21T05:41:38.828Z,752.00
2023-05-21T05:42:38.835Z,715.00
2023-05-21T05:43:38.878Z,715.00
2023-05-21T05:44:38.933Z,689.00
2023-05-21T05:45:39.307Z,671.00
2023-05-21T05:46:39.116Z,674.00
2023-05-21T05:47:39.044Z,663.00
2023-05-21T05:48:39.068Z,662.00
2023-05-21T05:49:39.081Z,655.00
2023-05-21T05:50:39.081Z,641.00
2023-05-21T05:51:39.122Z,647.00
2023-05-21T05:52:39.175Z,654.00
2023-05-21T05:53:39.232Z,651.00
2023-05-21T05:54:39.248Z,655.00
2023-05-21T05:55:39.439Z,661.00
2023-05-21T05:56:39.343Z,664.00
2023-05-21T05:57:39.348Z,663.00
2023-05-21T05:58:39.388Z,674.00
2023-05-21T05:59:39.425Z,683.00
2023-05-21T06:00:39.433Z,669.00
2023-05-21T06:01:39.448Z,674.00
2023-05-21T06:02:39.527Z,681.00
2023-05-21T06:03:39.542Z,691.00
2023-05-21T06:04:39.539Z,703.00
2023-05-21T06:05:39.838Z,685.00
2023-05-21T06:06:39.572Z,707.00
2023-05-21T06:07:39.643Z,709.00
2023-05-21T06:08:39.688Z,718.00
2023-05-21T06:09:39.727Z,728.00
2023-05-21T06:10:39.860Z,725.00
2023-05-21T06:11:39.819Z,716.00
2023-05-21T06:12:39.853Z,704.00
2023-05-21T06:13:39.862Z,746.00
2023-05-21T06:14:39.882Z,778.00
2023-05-21T06:15:39.901Z,780.00
2023-05-21T06:16:39.961Z,782.00
2023-05-21T06:17:39.949Z,794.00
2023-05-21T06:18:39.945Z,814.00
2023-05-21T06:19:39.975Z,777.00
2023-05-21T06:20:40.000Z,791.00
2023-05-21T06:21:40.050Z,818.00
2023-05-21T06:22:40.097Z,810.00
2023-05-21T06:23:40.141Z,809.00
2023-05-21T06:24:40.197Z,814.00
2023-05-21T06:25:40.357Z,805.00
2023-05-21T06:26:40.316Z,818.00
2023-05-21T06:27:40.369Z,832.00
2023-05-21T06:28:40.435Z,835.00
2023-05-21T06:29:40.497Z,829.00
2023-05-21T06:30:40.546Z,811.00
2023-05-21T06:31:40.626Z,819.00
2023-05-21T06:32:40.813Z,814.00
2023-05-21T06:33:40.876Z,840.00
2023-05-21T06:34:40.744Z,818.00
2023-05-21T06:35:40.779Z,807.00
2023-05-21T06:36:40.851Z,785.00
2023-05-21T06:37:40.892Z,796.00
2023-05-21T06:38:40.949Z,789.00
2023-05-21T06:39:41.010Z,810.00
2023-05-21T06:40:41.051Z,809.00
2023-05-21T06:41:41.132Z,788.00
2023-05-21T06:42:41.184Z,804.00
2023-05-21T06:43:41.336Z,809.00
2023-05-21T06:44:41.317Z,775.00
2023-05-21T06:45:41.591Z,759.00
2023-05-21T06:46:41.417Z,788.00
2023-05-21T06:47:41.490Z,734.00
2023-05-21T06:48:41.460Z,703.00
2023-05-21T06:49:41.518Z,745.00
2023-05-21T06:50:41.546Z,749.00
2023-05-21T06:51:41.594Z,663.00
2023-05-21T06:52:41.609Z,640.00
2023-05-21T06:53:41.630Z,618.00
2023-05-21T06:54:41.632Z,606.00
2023-05-21T06:55:41.629Z,617.00
2023-05-21T06:56:41.632Z,601.00
2023-05-21T06:57:41.636Z,614.00
2023-05-21T06:58:41.631Z,618.00
2023-05-21T06:59:41.631Z,620.00
2023-05-21T07:00:41.618Z,642.00
2023-05-21T07:01:41.721Z,639.00
2023-05-21T07:02:41.696Z,650.00
2023-05-21T07:03:41.662Z,654.00
2023-05-21T07:04:41.641Z,697.00
2023-05-21T07:05:41.654Z,745.00
2023-05-21T07:06:41.632Z,753.00
2023-05-21T07:07:41.643Z,740.00
2023-05-21T07:08:41.662Z,751.00
2023-05-21T07:09:41.676Z,787.00
2023-05-21T07:10:41.676Z,791.00
2023-05-21T07:11:41.655Z,806.00
2023-05-21T07:12:41.665Z,828.00
2023-05-21T07:13:41.665Z,846.00
2023-05-21T07:14:41.674Z,810.00
2023-05-21T07:15:41.688Z,806.00
2023-05-21T07:16:41.823Z,866.00
2023-05-21T07:17:41.788Z,836.00
2023-05-21T07:18:41.755Z,850.00
2023-05-21T07:19:41.726Z,829.00
2023-05-21T07:20:41.739Z,870.00
2023-05-21T07:21:41.731Z,881.00
2023-05-21T07:22:41.735Z,908.00
2023-05-21T07:23:41.748Z,890.00
2023-05-21T07:24:41.743Z,898.00
2023-05-21T07:25:41.764Z,903.00
2023-05-21T07:26:41.751Z,890.00
2023-05-21T07:27:41.763Z,917.00
2023-05-21T07:28:41.768Z,915.00
2023-05-21T07:29:41.783Z,889.00
2023-05-21T07:30:41.823Z,913.00
2023-05-21T07:31:41.816Z,903.00
2023-05-21T07:32:41.869Z,887.00
2023-05-21T07:33:41.796Z,900.00
2023-05-21T07:34:41.810Z,914.00
2023-05-21T07:35:41.802Z,897.00
2023-05-21T07:36:41.818Z,928.00
2023-05-21T07:37:41.889Z,919.00
2023-05-21T07:38:41.823Z,947.00
2023-05-21T07:39:41.816Z,917.00
2023-05-21T07:40:41.837Z,892.00
2023-05-21T07:41:41.821Z,910.00
2023-05-21T07:42:41.834Z,905.00
2023-05-21T07:43:41.820Z,934.00
2023-05-21T07:44:41.828Z,936.00
2023-05-21T07:45:41.843Z,939.00
2023-05-21T07:46:41.912Z,922.00
2023-05-21T07:47:41.936Z,899.00
2023-05-21T07:48:41.857Z,929.00
2023-05-21T07:49:41.835Z,895.00
2023-05-21T07:50:41.835Z,923.00
2023-05-21T07:51:41.839Z,878.00
2023-05-21T07:52:41.885Z,880.00
2023-05-21T07:53:41.844Z,891.00
2023-05-21T07:54:41.838Z,894.00
2023-05-21T07:55:41.815Z,889.00
2023-05-21T07:56:41.823Z,880.00
2023-05-21T07:57:41.852Z,860.00
2023-05-21T07:58:41.833Z,841.00
2023-05-21T07:59:41.862Z,844.00
2023-05-21T08:00:41.881Z,843.00
2023-05-21T08:01:41.911Z,829.00
2023-05-21T08:02:42.113Z,841.00
2023-05-21T08:03:41.995Z,839.00
2023-05-21T08:04:41.961Z,829.00
2023-05-21T08:05:41.977Z,851.00
2023-05-21T08:06:42.004Z,841.00
2023-05-21T08:07:41.988Z,879.00
2023-05-21T08:08:42.032Z,865.00
2023-05-21T08:09:42.055Z,820.00
2023-05-21T08:10:42.050Z,805.00
2023-05-21T08:11:42.047Z,817.00
2023-05-21T08:12:42.061Z,792.00
2023-05-21T08:13:42.077Z,811.00
2023-05-21T08:14:42.099Z,798.00
2023-05-21T08:15:42.095Z,820.00
2023-05-21T08:16:42.270Z,838.00
2023-05-21T08:17:42.178Z,850.00
2023-05-21T08:18:42.227Z,830.00
2023-05-21T08:19:42.197Z,823.00
2023-05-21T08:20:42.207Z,845.00
2023-05-21T08:21:42.231Z,830.00
2023-05-21T08:22:42.227Z,864.00
2023-05-21T08:23:42.235Z,843.00
2023-05-21T08:24:42.256Z,841.00
2023-05-21T08:25:42.253Z,867.00
2023-05-21T08:26:42.289Z,856.00
2023-05-21T08:27:42.268Z,876.00
2023-05-21T08:28:42.283Z,863.00
2023-05-21T08:29:42.299Z,891.00
2023-05-21T08:30:42.265Z,862.00
2023-05-21T08:31:42.342Z,879.00
2023-05-21T08:32:42.316Z,880.00
2023-05-21T08:33:42.297Z,888.00
2023-05-21T08:34:42.305Z,868.00
2023-05-21T08:35:42.318Z,867.00
2023-05-21T08:36:42.328Z,851.00
2023-05-21T08:37:42.330Z,840.00
2023-05-21T08:38:42.341Z,845.00
2023-05-21T08:39:42.353Z,816.00
2023-05-21T08:40:42.388Z,834.00
2023-05-21T08:41:42.366Z,812.00
2023-05-21T08:42:42.383Z,811.00
2023-05-21T08:43:42.362Z,791.00
2023-05-21T08:44:42.378Z,794.00
2023-05-21T08:45:42.396Z,749.00
2023-05-21T08:46:42.384Z,787.00
2023-05-21T08:47:42.405Z,783.00
2023-05-21T08:48:42.392Z,756.00
2023-05-21T08:49:42.408Z,752.00
2023-05-21T08:50:42.409Z,757.00
2023-05-21T08:51:42.434Z,743.00
2023-05-21T08:52:42.431Z,724.00
2023-05-21T08:53:42.474Z,675.00
2023-05-21T08:54:42.478Z,665.00
2023-05-21T08:55:42.486Z,698.00
2023-05-21T08:56:42.478Z,705.00
2023-05-21T08:57:42.532Z,710.00
2023-05-21T08:58:42.502Z,693.00
2023-05-21T08:59:42.501Z,661.00
2023-05-21T09:00:42.533Z,689.00
2023-05-21T09:01:42.689Z,707.00
2023-05-21T09:02:42.562Z,713.00
2023-05-21T09:03:42.601Z,662.00
2023-05-21T09:04:42.625Z,665.00
2023-05-21T09:05:42.560Z,666.00
2023-05-21T09:06:42.534Z,654.00
2023-05-21T09:07:42.539Z,662.00
2023-05-21T09:08:42.537Z,652.00
2023-05-21T09:09:42.544Z,660.00
2023-05-21T09:10:42.554Z,646.00
2023-05-21T09:11:42.565Z,642.00
2023-05-21T09:12:42.551Z,634.00
2023-05-21T09:13:42.585Z,628.00
2023-05-21T09:14:42.542Z,626.00
2023-05-21T09:15:42.554Z,629.00
2023-05-21T09:16:42.619Z,636.00
2023-05-21T09:17:42.588Z,630.00
2023-05-21T09:18:42.594Z,621.00
2023-05-21T09:19:42.607Z,615.00
2023-05-21T09:20:42.550Z,610.00
2023-05-21T09:21:42.575Z,616.00
2023-05-21T09:22:42.550Z,600.00
2023-05-21T09:23:42.552Z,585.00
2023-05-21T09:24:42.533Z,593.00
2023-05-21T09:25:42.566Z,584.00
2023-05-21T09:26:42.535Z,578.00
2023-05-21T09:27:42.543Z,550.00
2023-05-21T09:28:42.549Z,563.00
2023-05-21T09:29:42.564Z,563.00
2023-05-21T09:30:42.548Z,562.00
2023-05-21T09:31:42.608Z,565.00
2023-05-21T09:32:42.559Z,557.00
2023-05-21T09:33:42.565Z,556.00
2023-05-21T09:34:42.557Z,558.00
2023-05-21T09:35:42.557Z,531.00
2023-05-21T09:36:42.563Z,537.00
2023-05-21T09:37:42.568Z,526.00
2023-05-21T09:38:42.566Z,516.00
2023-05-21T09:39:42.569Z,504.00
2023-05-21T09:40:42.565Z,508.00
2023-05-21T09:41:42.567Z,504.00
2023-05-21T09:42:42.571Z,506.00
2023-05-21T09:43:42.577Z,508.00
2023-05-21T09:44:42.565Z,509.00
2023-05-21T09:45:42.586Z,523.00
2023-05-21T09:46:42.761Z,532.00
2023-05-21T09:47:42.668Z,519.00
2023-05-21T09:48:42.601Z,503.00
2023-05-21T09:49:42.583Z,500.00
2023-05-21T09:50:42.586Z,500.00
2023-05-21T09:51:42.573Z,500.00
2023-05-21T09:52:42.578Z,499.00
2023-05-21T09:53:42.582Z,513.00
2023-05-21T09:54:42.603Z,546.00
2023-05-21T09:55:42.630Z,521.00
2023-05-21T09:56:42.595Z,527.00
2023-05-21T09:57:42.619Z,519.00
2023-05-21T09:58:42.630Z,527.00
2023-05-21T09:59:42.635Z,513.00
2023-05-21T10:00:42.629Z,514.00
2023-05-21T10:01:42.667Z,521.00
2023-05-21T10:02:42.700Z,510.00
2023-05-21T10:03:42.666Z,501.00
2023-05-21T10:04:42.753Z,505.00
2023-05-21T10:05:42.728Z,500.00
2023-05-21T10:06:42.679Z,503.00
2023-05-21T10:07:42.671Z,516.00
2023-05-21T10:08:42.692Z,524.00
2023-05-21T10:09:42.686Z,531.00
2023-05-21T10:10:42.671Z,522.00
2023-05-21T10:11:42.711Z,507.00
2023-05-21T10:12:42.697Z,501.00
2023-05-21T10:13:42.717Z,501.00
2023-05-21T10:14:42.716Z,504.00
2023-05-21T10:15:42.715Z,519.00
2023-05-21T10:16:42.856Z,513.00
2023-05-21T10:17:42.759Z,500.00
2023-05-21T10:18:42.810Z,505.00
2023-05-21T10:19:42.738Z,500.00
2023-05-21T10:20:42.740Z,522.00
2023-05-21T10:21:42.756Z,516.00
2023-05-21T10:22:42.747Z,514.00
2023-05-21T10:23:42.759Z,525.00
2023-05-21T10:24:42.758Z,513.00
2023-05-21T10:25:42.766Z,500.00
2023-05-21T10:26:42.793Z,500.00
2023-05-21T10:27:42.862Z,507.00
2023-05-21T10:28:42.776Z,515.00
2023-05-21T10:29:42.787Z,540.00
2023-05-21T10:30:42.855Z,559.00
2023-05-21T10:31:42.832Z,557.00
2023-05-21T10:32:42.974Z,550.00
2023-05-21T10:33:42.840Z,552.00
2023-05-21T10:34:42.841Z,563.00
2023-05-21T10:35:42.844Z,568.00
2023-05-21T10:36:42.853Z,565.00
2023-05-21T10:37:42.866Z,549.00
2023-05-21T10:38:42.877Z,544.00
2023-05-21T10:39:42.878Z,571.00
2023-05-21T10:40:42.890Z,558.00
2023-05-21T10:41:42.935Z,550.00
2023-05-21T10:42:42.927Z,553.00
2023-05-21T10:43:42.953Z,547.00
2023-05-21T10:44:42.974Z,547.00
2023-05-21T10:45:43.037Z,539.00
2023-05-21T10:46:43.010Z,534.00
2023-05-21T10:47:43.025Z,535.00
2023-05-21T10:48:43.032Z,546.00
2023-05-21T10:49:43.047Z,552.00
2023-05-21T10:50:43.063Z,548.00
2023-05-21T10:51:43.088Z,536.00
2023-05-21T10:52:43.098Z,540.00
2023-05-21T10:53:43.103Z,534.00
2023-05-21T10:54:43.172Z,525.00
2023-05-21T10:55:43.181Z,518.00
2023-05-21T10:56:43.164Z,525.00
2023-05-21T10:57:43.180Z,522.00
2023-05-21T10:58:43.182Z,528.00
2023-05-21T10:59:43.193Z,511.00
2023-05-21T11:00:43.221Z,519.00
2023-05-21T11:01:43.346Z,519.00
2023-05-21T11:02:43.314Z,522.00
2023-05-21T11:03:43.350Z,527.00
2023-05-21T11:04:43.287Z,523.00
2023-05-21T11:05:43.323Z,518.00
2023-05-21T11:06:43.315Z,536.00
2023-05-21T11:07:43.328Z,522.00
2023-05-21T11:08:43.343Z,531.00
2023-05-21T11:09:43.363Z,540.00
2023-05-21T11:10:43.398Z,539.00
2023-05-21T11:11:43.402Z,521.00
2023-05-21T11:12:43.416Z,517.00
2023-05-21T11:13:43.448Z,532.00
2023-05-21T11:14:43.487Z,519.00
2023-05-21T11:15:43.464Z,524.00
2023-05-21T11:16:43.532Z,511.00
2023-05-21T11:17:43.518Z,510.00
2023-05-21T11:18:43.608Z,511.00
2023-05-21T11:19:43.614Z,507.00
2023-05-21T11:20:43.543Z,511.00
2023-05-21T11:21:43.569Z,517.00
2023-05-21T11:22:43.582Z,509.00
2023-05-21T11:23:43.602Z,522.00
2023-05-21T11:24:43.615Z,516.00
2023-05-21T11:25:43.636Z,514.00
2023-05-21T11:26:43.655Z,512.00
2023-05-21T11:27:43.676Z,515.00
2023-05-21T11:28:43.681Z,517.00
2023-05-21T11:29:43.708Z,514.00
2023-05-21T11:30:43.888Z,502.00
2023-05-21T11:31:43.849Z,505.00
2023-05-21T11:32:43.833Z,523.00
2023-05-21T11:33:43.778Z,513.00
2023-05-21T11:34:43.785Z,525.00
2023-05-21T11:35:43.814Z,520.00
2023-05-21T11:36:43.826Z,524.00
2023-05-21T11:37:43.851Z,527.00
2023-05-21T11:38:43.844Z,517.00
2023-05-21T11:39:43.870Z,511.00
2023-05-21T11:40:43.891Z,500.00
2023-05-21T11:41:43.933Z,542.00
2023-05-21T11:42:43.935Z,538.00
2023-05-21T11:43:43.978Z,512.00
2023-05-21T11:44:43.973Z,509.00
2023-05-21T11:45:43.965Z,504.00
2023-05-21T11:46:44.023Z,526.00
2023-05-21T11:47:44.049Z,518.00
2023-05-21T11:48:44.021Z,504.00
2023-05-21T11:49:44.036Z,507.00
2023-05-21T11:50:44.079Z,514.00
2023-05-21T11:51:44.095Z,504.00
2023-05-21T11:52:44.088Z,516.00
2023-05-21T11:53:44.343Z,519.00
2023-05-21T11:54:44.146Z,511.00
2023-05-21T11:55:44.147Z,506.00
2023-05-21T11:56:44.183Z,505.00
2023-05-21T11:57:44.206Z,518.00
2023-05-21T11:58:44.239Z,502.00
2023-05-21T11:59:44.242Z,508.00
2023-05-21T12:00:44.244Z,504.00
2023-05-21T12:01:44.287Z,510.00
2023-05-21T12:02:44.349Z,535.00
2023-05-21T12:03:44.392Z,532.00
2023-05-21T12:04:44.342Z,524.00
2023-05-21T12:05:44.444Z,520.00
2023-05-21T12:06:44.385Z,516.00
2023-05-21T12:07:44.405Z,500.00
2023-05-21T12:08:44.413Z,522.00
2023-05-21T12:09:44.451Z,510.00
2023-05-21T12:10:46.203Z,508.00
2023-05-21T12:11:44.490Z,523.00
2023-05-21T12:12:54.704Z,522.00
2023-05-21T12:13:45.516Z,522.00
2023-05-21T12:14:44.481Z,522.00
2023-05-21T12:15:44.472Z,523.00
2023-05-21T12:16:44.484Z,491.00
2023-05-21T12:17:44.491Z,489.00
2023-05-21T12:18:44.464Z,503.00
2023-05-21T12:19:44.443Z,513.00